sensor_id;sensor_type;location;lat;lon;timestamp;P1;durP1;ratioP1;P2;durP2;ratioP2
15218;SDS011;15623;53.986;11.676;2023-04-01T00:05:01;10.60;;;9.40;;
15218;SDS011;15623;53.986;11.676;2023-04-01T00:07:30;11.77;;;9.43;;
15218;SDS011;15623;53.986;11.676;2023-04-01T00:10:00;9.77;;;8.87;;
15218;SDS011;15623;53.986;11.676;2023-04-01T00:12:39;11.07;;;9.33;;
15218;SDS011;15623;53.986;11.676;2023-04-01T00:15:14;10.40;;;8.93;;
15218;SDS011;15623;53.986;11.676;2023-04-01T00:20:23;10.33;;;9.20;;
15218;SDS011;15623;53.986;11.676;2023-04-01T00:25:44;11.30;;;10.10;;
15218;SDS011;15623;53.986;11.676;2023-04-01T00:31:09;16.00;;;10.30;;
15218;SDS011;15623;53.986;11.676;2023-04-01T00:33:42;11.43;;;9.47;;
15218;SDS011;15623;53.986;11.676;2023-04-01T00:36:10;13.87;;;10.90;;
15218;SDS011;15623;53.986;11.676;2023-04-01T00:38:45;14.73;;;10.97;;
15218;SDS011;15623;53.986;11.676;2023-04-01T00:41:26;12.33;;;10.70;;
15218;SDS011;15623;53.986;11.676;2023-04-01T00:44:14;18.73;;;12.83;;
15218;SDS011;15623;53.986;11.676;2023-04-01T00:46:55;17.57;;;12.20;;
15218;SDS011;15623;53.986;11.676;2023-04-01T00:49:34;13.90;;;11.40;;
15218;SDS011;15623;53.986;11.676;2023-04-01T00:52:03;14.90;;;11.03;;
15218;SDS011;15623;53.986;11.676;2023-04-01T00:54:34;15.90;;;12.27;;
15218;SDS011;15623;53.986;11.676;2023-04-01T00:57:03;20.37;;;13.50;;
15218;SDS011;15623;53.986;11.676;2023-04-01T00:59:35;20.77;;;13.80;;
15218;SDS011;15623;53.986;11.676;2023-04-01T01:02:10;17.33;;;14.27;;
15218;SDS011;15623;53.986;11.676;2023-04-01T01:04:38;16.27;;;13.17;;
15218;SDS011;15623;53.986;11.676;2023-04-01T01:07:26;19.33;;;13.73;;
15218;SDS011;15623;53.986;11.676;2023-04-01T01:10:14;16.77;;;11.77;;
15218;SDS011;15623;53.986;11.676;2023-04-01T01:12:51;18.17;;;13.13;;
15218;SDS011;15623;53.986;11.676;2023-04-01T01:15:21;17.83;;;12.03;;
15218;SDS011;15623;53.986;11.676;2023-04-01T01:26:05;10.60;;;8.37;;
15218;SDS011;15623;53.986;11.676;2023-04-01T01:28:39;9.87;;;8.57;;
15218;SDS011;15623;53.986;11.676;2023-04-01T01:31:14;12.33;;;8.07;;
15218;SDS011;15623;53.986;11.676;2023-04-01T01:33:59;10.50;;;8.03;;
15218;SDS011;15623;53.986;11.676;2023-04-01T01:36:38;10.27;;;8.57;;
15218;SDS011;15623;53.986;11.676;2023-04-01T01:39:07;14.60;;;9.13;;
15218;SDS011;15623;53.986;11.676;2023-04-01T01:44:51;10.47;;;8.00;;
15218;SDS011;15623;53.986;11.676;2023-04-01T01:47:20;8.67;;;7.83;;
15218;SDS011;15623;53.986;11.676;2023-04-01T01:49:48;11.33;;;8.87;;
15218;SDS011;15623;53.986;11.676;2023-04-01T01:52:19;9.67;;;8.67;;
15218;SDS011;15623;53.986;11.676;2023-04-01T01:54:49;12.00;;;9.50;;
15218;SDS011;15623;53.986;11.676;2023-04-01T01:57:19;11.07;;;9.53;;
15218;SDS011;15623;53.986;11.676;2023-04-01T02:00:05;10.87;;;8.57;;
15218;SDS011;15623;53.986;11.676;2023-04-01T02:02:38;9.30;;;8.30;;
15218;SDS011;15623;53.986;11.676;2023-04-01T02:10:52;11.87;;;9.40;;
15218;SDS011;15623;53.986;11.676;2023-04-01T02:13:35;13.20;;;10.10;;
15218;SDS011;15623;53.986;11.676;2023-04-01T02:16:10;14.13;;;9.77;;
15218;SDS011;15623;53.986;11.676;2023-04-01T02:18:52;9.33;;;8.43;;
15218;SDS011;15623;53.986;11.676;2023-04-01T02:21:34;9.00;;;8.10;;
15218;SDS011;15623;53.986;11.676;2023-04-01T02:24:05;9.03;;;7.40;;
15218;SDS011;15623;53.986;11.676;2023-04-01T02:26:58;7.57;;;6.80;;
15218;SDS011;15623;53.986;11.676;2023-04-01T02:29:43;8.23;;;7.07;;
15218;SDS011;15623;53.986;11.676;2023-04-01T02:32:30;10.53;;;7.40;;
15218;SDS011;15623;53.986;11.676;2023-04-01T02:35:15;7.80;;;7.00;;
15218;SDS011;15623;53.986;11.676;2023-04-01T02:37:44;7.53;;;6.83;;
15218;SDS011;15623;53.986;11.676;2023-04-01T02:40:15;8.37;;;6.90;;
15218;SDS011;15623;53.986;11.676;2023-04-01T02:42:48;7.20;;;6.50;;
15218;SDS011;15623;53.986;11.676;2023-04-01T02:45:19;7.33;;;6.63;;
15218;SDS011;15623;53.986;11.676;2023-04-01T02:47:48;9.30;;;7.10;;
15218;SDS011;15623;53.986;11.676;2023-04-01T02:50:17;6.77;;;6.17;;
15218;SDS011;15623;53.986;11.676;2023-04-01T02:55:20;8.53;;;7.73;;
15218;SDS011;15623;53.986;11.676;2023-04-01T02:57:56;6.80;;;6.30;;
15218;SDS011;15623;53.986;11.676;2023-04-01T03:00:40;8.10;;;6.10;;
15218;SDS011;15623;53.986;11.676;2023-04-01T03:03:10;9.30;;;6.50;;
15218;SDS011;15623;53.986;11.676;2023-04-01T03:05:39;7.10;;;5.50;;
15218;SDS011;15623;53.986;11.676;2023-04-01T03:08:24;6.87;;;6.17;;
15218;SDS011;15623;53.986;11.676;2023-04-01T03:10:57;9.23;;;6.97;;
15218;SDS011;15623;53.986;11.676;2023-04-01T03:13:26;7.80;;;7.00;;
15218;SDS011;15623;53.986;11.676;2023-04-01T03:16:01;7.20;;;6.50;;
15218;SDS011;15623;53.986;11.676;2023-04-01T03:18:34;8.57;;;6.97;;
15218;SDS011;15623;53.986;11.676;2023-04-01T03:21:21;8.40;;;7.50;;
15218;SDS011;15623;53.986;11.676;2023-04-01T03:23:51;7.30;;;6.60;;
15218;SDS011;15623;53.986;11.676;2023-04-01T03:29:16;9.53;;;8.00;;
15218;SDS011;15623;53.986;11.676;2023-04-01T03:31:45;9.40;;;7.23;;
15218;SDS011;15623;53.986;11.676;2023-04-01T03:34:19;12.00;;;8.27;;
15218;SDS011;15623;53.986;11.676;2023-04-01T03:36:49;12.53;;;8.33;;
15218;SDS011;15623;53.986;11.676;2023-04-01T03:39:25;9.17;;;7.77;;
15218;SDS011;15623;53.986;11.676;2023-04-01T03:41:56;12.30;;;9.00;;
15218;SDS011;15623;53.986;11.676;2023-04-01T03:44:31;12.10;;;8.90;;
15218;SDS011;15623;53.986;11.676;2023-04-01T03:47:05;12.37;;;9.83;;
15218;SDS011;15623;53.986;11.676;2023-04-01T03:49:51;10.43;;;8.77;;
15218;SDS011;15623;53.986;11.676;2023-04-01T03:54:53;11.47;;;7.77;;
15218;SDS011;15623;53.986;11.676;2023-04-01T03:57:25;10.43;;;8.30;;
15218;SDS011;15623;53.986;11.676;2023-04-01T03:59:59;10.87;;;8.83;;
15218;SDS011;15623;53.986;11.676;2023-04-01T04:02:40;7.03;;;6.30;;
15218;SDS011;15623;53.986;11.676;2023-04-01T04:05:15;8.90;;;6.73;;
15218;SDS011;15623;53.986;11.676;2023-04-01T04:07:52;11.40;;;7.70;;
15218;SDS011;15623;53.986;11.676;2023-04-01T04:10:21;10.40;;;7.57;;
15218;SDS011;15623;53.986;11.676;2023-04-01T04:12:55;7.73;;;6.60;;
15218;SDS011;15623;53.986;11.676;2023-04-01T04:15:28;11.80;;;6.90;;
15218;SDS011;15623;53.986;11.676;2023-04-01T04:18:03;7.57;;;6.20;;
15218;SDS011;15623;53.986;11.676;2023-04-01T04:20:55;10.50;;;7.33;;
15218;SDS011;15623;53.986;11.676;2023-04-01T04:23:42;6.27;;;5.47;;
15218;SDS011;15623;53.986;11.676;2023-04-01T04:29:03;7.70;;;6.90;;
15218;SDS011;15623;53.986;11.676;2023-04-01T04:34:58;7.43;;;5.70;;
15218;SDS011;15623;53.986;11.676;2023-04-01T04:37:32;8.50;;;6.13;;
15218;SDS011;15623;53.986;11.676;2023-04-01T04:43:20;6.93;;;5.33;;
15218;SDS011;15623;53.986;11.676;2023-04-01T04:45:56;6.27;;;5.57;;
15218;SDS011;15623;53.986;11.676;2023-04-01T04:48:23;5.47;;;4.97;;
15218;SDS011;15623;53.986;11.676;2023-04-01T04:50:55;6.30;;;5.80;;
15218;SDS011;15623;53.986;11.676;2023-04-01T04:53:24;6.57;;;5.67;;
15218;SDS011;15623;53.986;11.676;2023-04-01T04:55:52;7.33;;;6.63;;
15218;SDS011;15623;53.986;11.676;2023-04-01T04:58:27;7.13;;;6.43;;
15218;SDS011;15623;53.986;11.676;2023-04-01T05:04:35;5.93;;;4.93;;
15218;SDS011;15623;53.986;11.676;2023-04-01T05:07:14;5.37;;;4.87;;
15218;SDS011;15623;53.986;11.676;2023-04-01T05:09:55;4.70;;;4.00;;
15218;SDS011;15623;53.986;11.676;2023-04-01T05:15:22;4.83;;;4.53;;
15218;SDS011;15623;53.986;11.676;2023-04-01T05:18:03;5.97;;;3.87;;
15218;SDS011;15623;53.986;11.676;2023-04-01T05:20:45;4.67;;;4.27;;
15218;SDS011;15623;53.986;11.676;2023-04-01T05:28:52;5.60;;;5.10;;
15218;SDS011;15623;53.986;11.676;2023-04-01T05:34:13;5.53;;;4.80;;
15218;SDS011;15623;53.986;11.676;2023-04-01T05:39:42;7.03;;;5.40;;
15218;SDS011;15623;53.986;11.676;2023-04-01T05:42:11;7.60;;;5.27;;
15218;SDS011;15623;53.986;11.676;2023-04-01T05:44:48;5.43;;;4.83;;
15218;SDS011;15623;53.986;11.676;2023-04-01T05:47:20;5.93;;;4.57;;
15218;SDS011;15623;53.986;11.676;2023-04-01T05:55:19;5.77;;;5.27;;
15218;SDS011;15623;53.986;11.676;2023-04-01T05:58:08;6.77;;;6.17;;
15218;SDS011;15623;53.986;11.676;2023-04-01T06:03:25;5.67;;;5.17;;
15218;SDS011;15623;53.986;11.676;2023-04-01T06:06:15;4.57;;;4.03;;
15218;SDS011;15623;53.986;11.676;2023-04-01T06:11:37;6.47;;;5.60;;
15218;SDS011;15623;53.986;11.676;2023-04-01T06:17:39;4.90;;;4.37;;
15218;SDS011;15623;53.986;11.676;2023-04-01T06:26:02;8.87;;;6.63;;
15218;SDS011;15623;53.986;11.676;2023-04-01T06:31:58;4.00;;;3.60;;
15218;SDS011;15623;53.986;11.676;2023-04-01T06:34:45;7.37;;;5.83;;
15218;SDS011;15623;53.986;11.676;2023-04-01T06:45:41;5.37;;;4.80;;
15218;SDS011;15623;53.986;11.676;2023-04-01T06:48:25;6.87;;;4.60;;
15218;SDS011;15623;53.986;11.676;2023-04-01T06:54:03;4.33;;;3.93;;
15218;SDS011;15623;53.986;11.676;2023-04-01T06:56:56;4.13;;;3.83;;
15218;SDS011;15623;53.986;11.676;2023-04-01T06:59:30;6.97;;;5.27;;
15218;SDS011;15623;53.986;11.676;2023-04-01T07:05:25;4.33;;;3.93;;
15218;SDS011;15623;53.986;11.676;2023-04-01T07:08:11;3.40;;;3.10;;
15218;SDS011;15623;53.986;11.676;2023-04-01T07:10:58;4.63;;;2.90;;
15218;SDS011;15623;53.986;11.676;2023-04-01T07:13:47;4.73;;;2.93;;
15218;SDS011;15623;53.986;11.676;2023-04-01T07:19:22;4.10;;;3.03;;
15218;SDS011;15623;53.986;11.676;2023-04-01T07:24:59;3.30;;;3.00;;
15218;SDS011;15623;53.986;11.676;2023-04-01T07:30:49;2.70;;;2.33;;
15218;SDS011;15623;53.986;11.676;2023-04-01T07:33:42;3.67;;;2.30;;
15218;SDS011;15623;53.986;11.676;2023-04-01T07:39:15;2.93;;;2.70;;
15218;SDS011;15623;53.986;11.676;2023-04-01T07:42:01;3.17;;;2.90;;
15218;SDS011;15623;53.986;11.676;2023-04-01T07:44:56;3.17;;;2.83;;
15218;SDS011;15623;53.986;11.676;2023-04-01T07:51:07;3.47;;;2.60;;
15218;SDS011;15623;53.986;11.676;2023-04-01T07:53:41;2.80;;;2.60;;
15218;SDS011;15623;53.986;11.676;2023-04-01T07:56:11;6.03;;;3.47;;
15218;SDS011;15623;53.986;11.676;2023-04-01T07:58:52;4.03;;;2.73;;
15218;SDS011;15623;53.986;11.676;2023-04-01T08:01:27;3.60;;;3.30;;
15218;SDS011;15623;53.986;11.676;2023-04-01T08:04:19;4.00;;;3.13;;
15218;SDS011;15623;53.986;11.676;2023-04-01T08:07:05;3.70;;;3.40;;
15218;SDS011;15623;53.986;11.676;2023-04-01T08:09:36;4.10;;;3.17;;
15218;SDS011;15623;53.986;11.676;2023-04-01T08:12:32;3.77;;;3.13;;
15218;SDS011;15623;53.986;11.676;2023-04-01T08:15:13;5.20;;;4.23;;
15218;SDS011;15623;53.986;11.676;2023-04-01T08:17:51;3.87;;;3.47;;
15218;SDS011;15623;53.986;11.676;2023-04-01T08:20:30;6.07;;;4.80;;
15218;SDS011;15623;53.986;11.676;2023-04-01T08:23:17;5.00;;;4.57;;
15218;SDS011;15623;53.986;11.676;2023-04-01T08:25:56;5.10;;;3.73;;
15218;SDS011;15623;53.986;11.676;2023-04-01T08:28:28;5.43;;;3.63;;
15218;SDS011;15623;53.986;11.676;2023-04-01T08:31:01;5.57;;;5.07;;
15218;SDS011;15623;53.986;11.676;2023-04-01T08:33:40;6.37;;;4.97;;
15218;SDS011;15623;53.986;11.676;2023-04-01T08:36:15;5.13;;;4.73;;
15218;SDS011;15623;53.986;11.676;2023-04-01T08:38:46;7.17;;;5.17;;
15218;SDS011;15623;53.986;11.676;2023-04-01T08:41:37;8.30;;;7.07;;
15218;SDS011;15623;53.986;11.676;2023-04-01T08:44:16;8.73;;;6.40;;
15218;SDS011;15623;53.986;11.676;2023-04-01T08:49:55;11.13;;;8.33;;
15218;SDS011;15623;53.986;11.676;2023-04-01T08:52:48;11.60;;;7.63;;
15218;SDS011;15623;53.986;11.676;2023-04-01T09:04:23;9.40;;;7.17;;
15218;SDS011;15623;53.986;11.676;2023-04-01T09:12:54;12.03;;;9.43;;
15218;SDS011;15623;53.986;11.676;2023-04-01T09:15:34;8.53;;;7.53;;
15218;SDS011;15623;53.986;11.676;2023-04-01T09:18:09;11.77;;;9.23;;
15218;SDS011;15623;53.986;11.676;2023-04-01T09:20:42;12.73;;;8.83;;
15218;SDS011;15623;53.986;11.676;2023-04-01T09:23:17;9.83;;;8.33;;
15218;SDS011;15623;53.986;11.676;2023-04-01T09:26:03;16.60;;;7.77;;
15218;SDS011;15623;53.986;11.676;2023-04-01T09:28:44;9.90;;;8.03;;
15218;SDS011;15623;53.986;11.676;2023-04-01T09:31:25;7.77;;;7.07;;
15218;SDS011;15623;53.986;11.676;2023-04-01T09:36:47;5.97;;;5.40;;
15218;SDS011;15623;53.986;11.676;2023-04-01T09:39:30;8.07;;;6.40;;
15218;SDS011;15623;53.986;11.676;2023-04-01T09:42:15;6.90;;;6.20;;
15218;SDS011;15623;53.986;11.676;2023-04-01T09:44:57;11.23;;;7.23;;
15218;SDS011;15623;53.986;11.676;2023-04-01T09:47:30;13.83;;;8.33;;
15218;SDS011;15623;53.986;11.676;2023-04-01T09:50:13;10.83;;;8.37;;
15218;SDS011;15623;53.986;11.676;2023-04-01T09:52:51;12.43;;;7.17;;
15218;SDS011;15623;53.986;11.676;2023-04-01T09:55:31;11.67;;;7.53;;
15218;SDS011;15623;53.986;11.676;2023-04-01T10:01:27;8.93;;;5.97;;
15218;SDS011;15623;53.986;11.676;2023-04-01T10:16:02;7.77;;;6.27;;
15218;SDS011;15623;53.986;11.676;2023-04-01T10:24:35;10.93;;;6.80;;
15218;SDS011;15623;53.986;11.676;2023-04-01T10:33:24;7.87;;;5.87;;
15218;SDS011;15623;53.986;11.676;2023-04-01T10:36:12;8.83;;;5.73;;
15218;SDS011;15623;53.986;11.676;2023-04-01T10:45:06;6.27;;;4.70;;
15218;SDS011;15623;53.986;11.676;2023-04-01T10:53:38;9.37;;;5.00;;
15218;SDS011;15623;53.986;11.676;2023-04-01T11:32:14;8.00;;;5.63;;
15218;SDS011;15623;53.986;11.676;2023-04-01T11:37:37;5.40;;;4.90;;
15218;SDS011;15623;53.986;11.676;2023-04-01T11:40:11;8.90;;;5.17;;
15218;SDS011;15623;53.986;11.676;2023-04-01T11:42:52;9.33;;;6.13;;
15218;SDS011;15623;53.986;11.676;2023-04-01T11:50:55;12.30;;;7.90;;
15218;SDS011;15623;53.986;11.676;2023-04-01T11:53:34;9.13;;;5.00;;
15218;SDS011;15623;53.986;11.676;2023-04-01T11:58:58;5.17;;;4.43;;
15218;SDS011;15623;53.986;11.676;2023-04-01T12:01:42;7.57;;;5.13;;
15218;SDS011;15623;53.986;11.676;2023-04-01T12:04:21;7.97;;;5.47;;
15218;SDS011;15623;53.986;11.676;2023-04-01T12:07:00;6.47;;;5.63;;
15218;SDS011;15623;53.986;11.676;2023-04-01T12:09:33;9.23;;;5.53;;
15218;SDS011;15623;53.986;11.676;2023-04-01T12:14:42;6.80;;;4.50;;
15218;SDS011;15623;53.986;11.676;2023-04-01T12:36:17;8.33;;;6.43;;
15218;SDS011;15623;53.986;11.676;2023-04-01T12:38:50;10.57;;;7.30;;
15218;SDS011;15623;53.986;11.676;2023-04-01T12:41:24;6.93;;;6.20;;
15218;SDS011;15623;53.986;11.676;2023-04-01T12:47:00;9.67;;;5.27;;
15218;SDS011;15623;53.986;11.676;2023-04-01T12:49:47;6.13;;;5.10;;
15218;SDS011;15623;53.986;11.676;2023-04-01T13:00:48;9.17;;;5.83;;
15218;SDS011;15623;53.986;11.676;2023-04-01T13:03:36;9.03;;;6.30;;
15218;SDS011;15623;53.986;11.676;2023-04-01T13:06:25;8.47;;;5.43;;
15218;SDS011;15623;53.986;11.676;2023-04-01T13:08:57;8.03;;;5.77;;
15218;SDS011;15623;53.986;11.676;2023-04-01T13:11:37;11.77;;;5.20;;
15218;SDS011;15623;53.986;11.676;2023-04-01T13:16:56;5.53;;;4.73;;
15218;SDS011;15623;53.986;11.676;2023-04-01T13:19:34;6.07;;;4.20;;
15218;SDS011;15623;53.986;11.676;2023-04-01T13:22:05;7.53;;;5.07;;
15218;SDS011;15623;53.986;11.676;2023-04-01T13:24:37;7.30;;;5.27;;
15218;SDS011;15623;53.986;11.676;2023-04-01T13:27:09;7.57;;;4.40;;
15218;SDS011;15623;53.986;11.676;2023-04-01T13:29:39;6.40;;;4.90;;
15218;SDS011;15623;53.986;11.676;2023-04-01T13:32:18;5.87;;;4.83;;
15218;SDS011;15623;53.986;11.676;2023-04-01T13:35:01;7.90;;;5.80;;
15218;SDS011;15623;53.986;11.676;2023-04-01T13:37:39;5.57;;;4.73;;
15218;SDS011;15623;53.986;11.676;2023-04-01T13:42:57;11.93;;;4.90;;
15218;SDS011;15623;53.986;11.676;2023-04-01T13:48:34;7.93;;;4.97;;
15218;SDS011;15623;53.986;11.676;2023-04-01T13:54:25;8.63;;;5.33;;
15218;SDS011;15623;53.986;11.676;2023-04-01T13:57:29;8.47;;;5.40;;
15218;SDS011;15623;53.986;11.676;2023-04-01T14:00:07;5.20;;;4.57;;
15218;SDS011;15623;53.986;11.676;2023-04-01T14:11:53;7.60;;;5.23;;
15218;SDS011;15623;53.986;11.676;2023-04-01T14:14:44;6.27;;;4.27;;
15218;SDS011;15623;53.986;11.676;2023-04-01T14:17:35;8.73;;;5.47;;
15218;SDS011;15623;53.986;11.676;2023-04-01T14:26:03;6.10;;;4.07;;
15218;SDS011;15623;53.986;11.676;2023-04-01T14:31:11;5.87;;;4.67;;
15218;SDS011;15623;53.986;11.676;2023-04-01T14:33:55;5.80;;;4.40;;
15218;SDS011;15623;53.986;11.676;2023-04-01T14:39:12;4.50;;;4.03;;
15218;SDS011;15623;53.986;11.676;2023-04-01T14:41:46;5.97;;;4.07;;
15218;SDS011;15623;53.986;11.676;2023-04-01T14:47:14;5.03;;;4.03;;
15218;SDS011;15623;53.986;11.676;2023-04-01T14:49:45;3.10;;;2.80;;
15218;SDS011;15623;53.986;11.676;2023-04-01T14:52:26;5.67;;;4.23;;
15218;SDS011;15623;53.986;11.676;2023-04-01T14:57:34;3.20;;;2.90;;
15218;SDS011;15623;53.986;11.676;2023-04-01T15:00:12;4.27;;;3.33;;
15218;SDS011;15623;53.986;11.676;2023-04-01T15:02:56;5.60;;;3.47;;
15218;SDS011;15623;53.986;11.676;2023-04-01T15:05:31;6.00;;;3.23;;
15218;SDS011;15623;53.986;11.676;2023-04-01T15:08:20;4.97;;;3.00;;
15218;SDS011;15623;53.986;11.676;2023-04-01T15:16:31;4.93;;;3.40;;
15218;SDS011;15623;53.986;11.676;2023-04-01T15:19:14;8.90;;;4.03;;
15218;SDS011;15623;53.986;11.676;2023-04-01T15:21:48;4.00;;;3.60;;
15218;SDS011;15623;53.986;11.676;2023-04-01T15:24:20;4.47;;;2.57;;
15218;SDS011;15623;53.986;11.676;2023-04-01T15:29:47;4.27;;;2.90;;
15218;SDS011;15623;53.986;11.676;2023-04-01T15:32:21;6.10;;;3.77;;
15218;SDS011;15623;53.986;11.676;2023-04-01T15:34:56;3.77;;;2.90;;
15218;SDS011;15623;53.986;11.676;2023-04-01T15:37:29;3.57;;;3.27;;
15218;SDS011;15623;53.986;11.676;2023-04-01T15:42:40;3.60;;;2.40;;
15218;SDS011;15623;53.986;11.676;2023-04-01T15:45:16;3.27;;;2.87;;
15218;SDS011;15623;53.986;11.676;2023-04-01T15:47:53;2.97;;;2.67;;
15218;SDS011;15623;53.986;11.676;2023-04-01T15:50:44;2.97;;;2.73;;
15218;SDS011;15623;53.986;11.676;2023-04-01T15:59:14;3.33;;;3.03;;
15218;SDS011;15623;53.986;11.676;2023-04-01T16:01:47;7.97;;;3.40;;
15218;SDS011;15623;53.986;11.676;2023-04-01T16:07:09;4.43;;;3.07;;
15218;SDS011;15623;53.986;11.676;2023-04-01T16:09:43;5.03;;;2.90;;
15218;SDS011;15623;53.986;11.676;2023-04-01T16:12:24;5.07;;;3.23;;
15218;SDS011;15623;53.986;11.676;2023-04-01T16:14:59;6.83;;;3.83;;
15218;SDS011;15623;53.986;11.676;2023-04-01T16:17:43;4.17;;;3.63;;
15218;SDS011;15623;53.986;11.676;2023-04-01T16:20:16;7.50;;;3.63;;
15218;SDS011;15623;53.986;11.676;2023-04-01T16:22:54;4.97;;;3.47;;
15218;SDS011;15623;53.986;11.676;2023-04-01T16:25:28;5.53;;;3.57;;
15218;SDS011;15623;53.986;11.676;2023-04-01T16:28:03;5.73;;;2.90;;
15218;SDS011;15623;53.986;11.676;2023-04-01T16:30:36;3.63;;;3.07;;
15218;SDS011;15623;53.986;11.676;2023-04-01T16:33:10;3.30;;;2.97;;
15218;SDS011;15623;53.986;11.676;2023-04-01T16:35:41;4.20;;;2.43;;
15218;SDS011;15623;53.986;11.676;2023-04-01T16:38:18;5.60;;;3.13;;
15218;SDS011;15623;53.986;11.676;2023-04-01T16:41:00;5.60;;;3.30;;
15218;SDS011;15623;53.986;11.676;2023-04-01T16:46:54;5.03;;;3.37;;
15218;SDS011;15623;53.986;11.676;2023-04-01T16:49:31;6.27;;;3.67;;
15218;SDS011;15623;53.986;11.676;2023-04-01T16:57:57;3.30;;;2.37;;
15218;SDS011;15623;53.986;11.676;2023-04-01T17:00:36;5.83;;;2.80;;
15218;SDS011;15623;53.986;11.676;2023-04-01T17:03:09;4.23;;;3.20;;
15218;SDS011;15623;53.986;11.676;2023-04-01T17:05:49;5.60;;;3.00;;
15218;SDS011;15623;53.986;11.676;2023-04-01T17:08:27;4.87;;;3.10;;
15218;SDS011;15623;53.986;11.676;2023-04-01T17:14:12;3.40;;;2.37;;
15218;SDS011;15623;53.986;11.676;2023-04-01T17:21:55;4.30;;;2.80;;
15218;SDS011;15623;53.986;11.676;2023-04-01T17:24:32;3.17;;;2.60;;
15218;SDS011;15623;53.986;11.676;2023-04-01T17:27:12;5.83;;;3.40;;
15218;SDS011;15623;53.986;11.676;2023-04-01T17:29:55;5.87;;;3.30;;
15218;SDS011;15623;53.986;11.676;2023-04-01T17:32:30;7.90;;;2.83;;
15218;SDS011;15623;53.986;11.676;2023-04-01T17:35:16;4.97;;;2.83;;
15218;SDS011;15623;53.986;11.676;2023-04-01T17:40:48;3.03;;;2.60;;
15218;SDS011;15623;53.986;11.676;2023-04-01T17:43:22;4.40;;;2.67;;
15218;SDS011;15623;53.986;11.676;2023-04-01T17:45:56;4.47;;;1.70;;
15218;SDS011;15623;53.986;11.676;2023-04-01T17:48:38;3.40;;;2.03;;
15218;SDS011;15623;53.986;11.676;2023-04-01T17:51:19;6.13;;;2.30;;
15218;SDS011;15623;53.986;11.676;2023-04-01T17:53:57;4.53;;;3.00;;
15218;SDS011;15623;53.986;11.676;2023-04-01T17:56:39;5.10;;;2.40;;
15218;SDS011;15623;53.986;11.676;2023-04-01T17:59:16;6.10;;;2.47;;
15218;SDS011;15623;53.986;11.676;2023-04-01T18:02:02;5.30;;;2.33;;
15218;SDS011;15623;53.986;11.676;2023-04-01T18:10:23;8.50;;;3.20;;
15218;SDS011;15623;53.986;11.676;2023-04-01T18:16:02;6.00;;;3.00;;
15218;SDS011;15623;53.986;11.676;2023-04-01T18:18:48;4.97;;;3.10;;
15218;SDS011;15623;53.986;11.676;2023-04-01T18:21:23;4.50;;;2.67;;
15218;SDS011;15623;53.986;11.676;2023-04-01T18:23:55;4.33;;;3.00;;
15218;SDS011;15623;53.986;11.676;2023-04-01T18:26:27;6.33;;;3.40;;
15218;SDS011;15623;53.986;11.676;2023-04-01T18:28:58;5.47;;;2.93;;
15218;SDS011;15623;53.986;11.676;2023-04-01T18:31:32;3.83;;;3.00;;
15218;SDS011;15623;53.986;11.676;2023-04-01T18:34:06;5.17;;;3.90;;
15218;SDS011;15623;53.986;11.676;2023-04-01T18:36:37;3.90;;;3.50;;
15218;SDS011;15623;53.986;11.676;2023-04-01T18:39:08;6.83;;;3.10;;
15218;SDS011;15623;53.986;11.676;2023-04-01T18:41:42;4.87;;;3.20;;
15218;SDS011;15623;53.986;11.676;2023-04-01T18:44:22;5.67;;;3.20;;
15218;SDS011;15623;53.986;11.676;2023-04-01T18:46:52;3.33;;;3.00;;
15218;SDS011;15623;53.986;11.676;2023-04-01T18:49:29;4.83;;;3.00;;
15218;SDS011;15623;53.986;11.676;2023-04-01T18:52:07;2.77;;;1.90;;
15218;SDS011;15623;53.986;11.676;2023-04-01T18:57:40;4.30;;;2.47;;
15218;SDS011;15623;53.986;11.676;2023-04-01T19:00:13;3.00;;;1.80;;
15218;SDS011;15623;53.986;11.676;2023-04-01T19:02:43;5.70;;;2.03;;
15218;SDS011;15623;53.986;11.676;2023-04-01T19:05:18;5.03;;;1.90;;
15218;SDS011;15623;53.986;11.676;2023-04-01T19:07:48;3.93;;;1.73;;
15218;SDS011;15623;53.986;11.676;2023-04-01T19:10:28;4.30;;;1.57;;
15218;SDS011;15623;53.986;11.676;2023-04-01T19:13:03;2.00;;;1.63;;
15218;SDS011;15623;53.986;11.676;2023-04-01T19:15:42;3.00;;;1.57;;
15218;SDS011;15623;53.986;11.676;2023-04-01T19:21:07;4.00;;;2.17;;
15218;SDS011;15623;53.986;11.676;2023-04-01T19:26:38;4.70;;;2.00;;
15218;SDS011;15623;53.986;11.676;2023-04-01T19:29:19;3.80;;;2.43;;
15218;SDS011;15623;53.986;11.676;2023-04-01T19:34:26;4.53;;;2.50;;
15218;SDS011;15623;53.986;11.676;2023-04-01T19:37:25;5.77;;;2.23;;
15218;SDS011;15623;53.986;11.676;2023-04-01T19:40:06;5.17;;;2.40;;
15218;SDS011;15623;53.986;11.676;2023-04-01T19:42:41;4.50;;;2.03;;
15218;SDS011;15623;53.986;11.676;2023-04-01T19:45:18;3.87;;;2.30;;
15218;SDS011;15623;53.986;11.676;2023-04-01T19:47:57;3.67;;;1.90;;
15218;SDS011;15623;53.986;11.676;2023-04-01T19:50:30;1.83;;;1.40;;
15218;SDS011;15623;53.986;11.676;2023-04-01T19:53:05;8.23;;;1.70;;
15218;SDS011;15623;53.986;11.676;2023-04-01T19:55:44;3.30;;;1.40;;
15218;SDS011;15623;53.986;11.676;2023-04-01T19:58:25;3.07;;;1.63;;
15218;SDS011;15623;53.986;11.676;2023-04-01T20:00:55;3.73;;;1.90;;
15218;SDS011;15623;53.986;11.676;2023-04-01T20:03:30;3.57;;;1.90;;
15218;SDS011;15623;53.986;11.676;2023-04-01T20:06:05;4.17;;;1.70;;
15218;SDS011;15623;53.986;11.676;2023-04-01T20:08:40;3.90;;;2.10;;
15218;SDS011;15623;53.986;11.676;2023-04-01T20:11:15;4.20;;;2.20;;
15218;SDS011;15623;53.986;11.676;2023-04-01T20:13:48;5.50;;;2.13;;
15218;SDS011;15623;53.986;11.676;2023-04-01T20:16:17;6.77;;;2.30;;
15218;SDS011;15623;53.986;11.676;2023-04-01T20:18:55;4.77;;;1.83;;
15218;SDS011;15623;53.986;11.676;2023-04-01T20:21:35;5.83;;;1.97;;
15218;SDS011;15623;53.986;11.676;2023-04-01T20:24:25;6.57;;;1.80;;
15218;SDS011;15623;53.986;11.676;2023-04-01T20:26:58;4.53;;;2.20;;
15218;SDS011;15623;53.986;11.676;2023-04-01T20:29:43;5.87;;;2.00;;
15218;SDS011;15623;53.986;11.676;2023-04-01T20:32:25;3.17;;;1.70;;
15218;SDS011;15623;53.986;11.676;2023-04-01T20:35:01;4.80;;;2.40;;
15218;SDS011;15623;53.986;11.676;2023-04-01T20:37:36;4.90;;;1.80;;
15218;SDS011;15623;53.986;11.676;2023-04-01T20:51:12;3.83;;;1.60;;
15218;SDS011;15623;53.986;11.676;2023-04-01T20:59:04;5.83;;;1.80;;
15218;SDS011;15623;53.986;11.676;2023-04-01T21:01:38;3.73;;;1.87;;
15218;SDS011;15623;53.986;11.676;2023-04-01T21:04:30;2.53;;;1.27;;
15218;SDS011;15623;53.986;11.676;2023-04-01T21:10:07;3.33;;;1.50;;
15218;SDS011;15623;53.986;11.676;2023-04-01T21:12:40;3.60;;;1.47;;
15218;SDS011;15623;53.986;11.676;2023-04-01T21:15:19;3.03;;;1.77;;
15218;SDS011;15623;53.986;11.676;2023-04-01T21:17:55;4.87;;;1.70;;
15218;SDS011;15623;53.986;11.676;2023-04-01T21:20:30;7.83;;;1.80;;
15218;SDS011;15623;53.986;11.676;2023-04-01T21:23:06;4.23;;;1.87;;
15218;SDS011;15623;53.986;11.676;2023-04-01T21:25:44;4.73;;;1.80;;
15218;SDS011;15623;53.986;11.676;2023-04-01T21:28:39;2.60;;;1.40;;
15218;SDS011;15623;53.986;11.676;2023-04-01T21:31:12;3.10;;;1.40;;
15218;SDS011;15623;53.986;11.676;2023-04-01T21:33:52;5.07;;;1.80;;
15218;SDS011;15623;53.986;11.676;2023-04-01T21:36:26;4.60;;;1.90;;
15218;SDS011;15623;53.986;11.676;2023-04-01T21:39:12;1.90;;;1.03;;
15218;SDS011;15623;53.986;11.676;2023-04-01T21:41:54;3.27;;;1.50;;
15218;SDS011;15623;53.986;11.676;2023-04-01T21:44:49;3.70;;;1.30;;